Time;durP1;ratioP1;P1;durP2;ratioP2;P2;SDS_P1;SDS_P2;PMS_P1;PMS_P2;Temp;Humidity;BMP_temperature;BMP_pressure;BME280_temperature;BME280_humidity;BME280_pressure;Samples;Min_cycle;Max_cycle;Signal;HPM_P1;HPM_P2
2022/08/05 00:04:48;;;;;;;3.05;1.20;;;26.00;89.30;;;;;;4968741;28;20452;-88
2022/08/05 00:07:14;;;;;;;4.88;1.33;;;25.80;89.60;;;;;;4947352;28;20086;-90
2022/08/05 00:09:40;;;;;;;2.33;1.27;;;25.80;89.50;;;;;;4951454;29;20063;-91
2022/08/05 00:12:06;;;;;;;2.35;1.30;;;25.70;90.00;;;;;;4945344;29;20536;-91
2022/08/05 00:14:32;;;;;;;2.05;1.17;;;25.60;90.50;;;;;;4968763;28;20075;-91
2022/08/05 00:16:58;;;;;;;2.88;1.30;;;25.60;90.20;;;;;;4960389;28;20195;-90
2022/08/05 00:19:25;;;;;;;3.25;1.20;;;25.60;90.40;;;;;;4955896;28;20034;-90
2022/08/05 00:27:33;;;;;;;2.58;1.38;;;25.50;90.20;;;;;;4202634;26;20151;-90
2022/08/05 00:30:03;;;;;;;6.88;1.55;;;25.50;90.20;;;;;;4955734;28;20047;-90
2022/08/05 00:32:57;;;;;;;3.67;1.33;;;25.50;90.10;;;;;;4941953;28;20028;-91
2022/08/05 00:35:23;;;;;;;2.50;1.33;;;25.60;90.20;;;;;;4937561;28;20091;-90
2022/08/05 00:37:51;;;;;;;3.10;1.02;;;25.50;89.30;;;;;;4954185;28;20499;-91
2022/08/05 00:40:21;;;;;;;2.22;1.02;;;25.40;89.20;;;;;;4933791;28;20039;-88
2022/08/05 00:42:47;;;;;;;3.47;1.35;;;25.40;89.80;;;;;;4938736;28;20427;-88
2022/08/05 00:45:20;;;;;;;1.95;1.08;;;25.40;89.90;;;;;;4936772;28;20074;-90
2022/08/05 00:47:53;;;;;;;1.70;1.00;;;25.30;89.50;;;;;;4937590;28;20023;-90
2022/08/05 00:50:22;;;;;;;2.53;1.20;;;25.30;88.80;;;;;;4954710;28;20039;-90
2022/08/05 00:52:51;;;;;;;2.53;0.98;;;25.30;88.90;;;;;;4936448;28;20868;-90
2022/08/05 00:55:22;;;;;;;2.97;1.05;;;25.30;88.70;;;;;;4935837;28;20499;-90
2022/08/05 00:58:01;;;;;;;2.33;1.00;;;25.30;87.20;;;;;;4953567;28;20042;-89
2022/08/05 01:00:30;;;;;;;2.15;1.10;;;25.30;86.80;;;;;;4953105;28;20042;-90
2022/08/05 01:02:59;;;;;;;1.92;1.02;;;25.30;87.50;;;;;;4940947;28;20562;-90
2022/08/05 01:05:28;;;;;;;1.85;0.85;;;25.40;84.90;;;;;;4935239;28;20039;-90
2022/08/05 01:08:00;;;;;;;1.60;0.85;;;25.60;78.20;;;;;;4954350;28;20019;-90
2022/08/05 01:10:37;;;;;;;5.00;0.80;;;25.90;77.90;;;;;;4952426;28;20539;-90
2022/08/05 01:13:26;;;;;;;1.45;0.77;;;25.90;77.90;;;;;;4932600;28;20106;-90
2022/08/05 01:16:05;;;;;;;1.95;0.60;;;26.10;77.20;;;;;;4934731;28;20032;-90
2022/08/05 01:18:46;;;;;;;1.13;0.60;;;26.10;78.00;;;;;;4951633;28;20050;-90
2022/08/05 01:22:04;;;;;;;2.37;1.47;;;26.10;78.40;;;;;;4935135;28;20122;-89
2022/08/05 01:24:53;;;;;;;1.13;0.55;;;26.00;80.40;;;;;;4910027;29;20292;-91
2022/08/05 01:27:51;;;;;;;2.00;0.68;;;25.80;80.90;;;;;;4951780;28;20039;-91
2022/08/05 01:43:33;;;;;;;2.03;0.68;;;25.20;84.50;;;;;;5988559;23;5458407;-88
2022/08/05 01:46:05;;;;;;;1.90;0.50;;;25.10;85.00;;;;;;6190164;23;20016;-87
2022/08/05 01:48:40;;;;;;;2.70;0.75;;;25.10;85.30;;;;;;6189869;23;20039;-88
2022/08/05 01:51:25;;;;;;;1.75;0.70;;;24.90;85.90;;;;;;6189300;23;20007;-88
2022/08/05 01:53:53;;;;;;;2.30;1.00;;;24.90;86.30;;;;;;6189616;23;20008;-87
2022/08/05 01:56:53;;;;;;;3.03;1.00;;;24.80;86.80;;;;;;6188992;23;19997;-88
2022/08/05 02:03:23;;;;;;;2.10;0.88;;;24.70;87.60;;;;;;6190579;23;20053;-87
2022/08/05 02:05:55;;;;;;;4.20;0.85;;;24.70;88.30;;;;;;6216607;23;20005;-90
2022/08/05 02:08:36;;;;;;;0.93;0.40;;;24.60;88.70;;;;;;6190095;23;20360;-88
2022/08/05 02:11:27;;;;;;;2.47;0.65;;;24.70;89.10;;;;;;6189397;23;20036;-88
2022/08/05 02:14:21;;;;;;;3.78;0.52;;;24.60;89.10;;;;;;6189677;23;20009;-88
2022/08/05 02:17:01;;;;;;;1.73;0.70;;;24.50;89.60;;;;;;6189254;23;20083;-88
2022/08/05 02:19:34;;;;;;;3.40;0.80;;;24.50;89.70;;;;;;6189847;23;20008;-89
2022/08/05 02:22:15;;;;;;;3.63;0.60;;;24.50;90.00;;;;;;6189192;23;20008;-87
2022/08/05 02:24:50;;;;;;;1.75;0.80;;;24.40;90.00;;;;;;6190962;23;20000;-86
2022/08/05 02:27:22;;;;;;;1.98;0.90;;;24.40;90.20;;;;;;6190878;23;20083;-87
2022/08/05 02:30:02;;;;;;;1.90;0.70;;;24.30;90.30;;;;;;6190915;23;20317;-88
2022/08/05 02:32:39;;;;;;;0.95;0.60;;;24.30;90.30;;;;;;6191047;23;20093;-88
2022/08/05 02:35:11;;;;;;;2.65;1.00;;;24.40;90.30;;;;;;6188970;23;20029;-87
2022/08/05 02:37:43;;;;;;;3.22;0.80;;;24.20;90.40;;;;;;6189509;23;20091;-87
2022/08/05 02:40:35;;;;;;;2.17;0.63;;;24.30;90.60;;;;;;6187747;23;20005;-87
2022/08/05 02:43:17;;;;;;;2.22;0.70;;;24.30;90.80;;;;;;6182991;23;20473;-88
2022/08/05 02:45:53;;;;;;;2.30;0.63;;;24.30;90.70;;;;;;6181819;23;20005;-87
2022/08/05 02:48:25;;;;;;;3.67;0.75;;;24.30;90.80;;;;;;6185294;23;20430;-88
2022/08/05 02:50:52;;;;;;;2.58;0.60;;;24.20;90.90;;;;;;6183340;23;20000;-88
2022/08/05 02:53:22;;;;;;;4.85;0.85;;;24.20;90.90;;;;;;6182410;23;20005;-88
2022/08/05 02:56:08;;;;;;;1.38;0.60;;;24.10;91.00;;;;;;6182465;23;20005;-88
2022/08/05 03:05:22;;;;;;;2.25;0.90;;;24.20;91.20;;;;;;6144248;23;20376;-88
2022/08/05 03:08:06;;;;;;;1.80;0.70;;;24.20;91.50;;;;;;6181907;23;20093;-88
2022/08/05 03:11:03;;;;;;;1.27;0.65;;;24.10;91.50;;;;;;6182921;23;20048;-88
2022/08/05 03:13:37;;;;;;;2.20;0.70;;;24.20;91.30;;;;;;6183246;23;20032;-88
2022/08/05 03:16:32;;;;;;;3.38;0.90;;;24.10;91.50;;;;;;6182238;23;20008;-88
2022/08/05 03:22:16;;;;;;;1.15;0.50;;;24.10;91.90;;;;;;6193759;23;19989;-86
2022/08/05 03:25:22;;;;;;;;;;;;;;;;;;;;;
2022/08/05 03:27:54;;;;;;;1.73;0.50;;;24.00;91.80;;;;;;6212009;23;20039;-86
2022/08/05 03:30:32;;;;;;;1.52;0.63;;;24.00;91.90;;;;;;6195060;23;20013;-86
2022/08/05 03:33:11;;;;;;;1.70;0.70;;;24.00;92.00;;;;;;6182182;23;20132;-88
2022/08/05 03:42:36;;;;;;;1.83;0.80;;;23.90;92.40;;;;;;6150603;23;20006;-88
2022/08/05 03:45:09;;;;;;;1.17;0.57;;;23.80;92.40;;;;;;6183006;23;20009;-86
2022/08/05 03:47:57;;;;;;;1.35;0.63;;;23.80;92.60;;;;;;6182981;23;20005;-87
2022/08/05 03:50:43;;;;;;;1.42;0.80;;;23.70;92.80;;;;;;6173947;23;20009;-89
2022/08/05 03:54:03;;;;;;;2.22;0.70;;;23.70;93.00;;;;;;6182555;23;20096;-89
2022/08/05 04:00:25;;;;;;;1.35;0.70;;;23.70;93.30;;;;;;6122033;23;20102;-90
2022/08/05 04:03:15;;;;;;;;;;;23.70;93.50;;;;;;6084828;23;20049;-90
2022/08/05 04:05:57;;;;;;;;;;;;;;;;;;;;;
2022/08/05 04:08:43;;;;;;;1.60;0.80;;;23.60;93.70;;;;;;6184128;23;20080;-89
2022/08/05 04:11:14;;;;;;;1.05;0.57;;;23.60;93.80;;;;;;6182112;23;20063;-87
2022/08/05 04:16:48;;;;;;;2.10;0.80;;;23.40;93.90;;;;;;6182103;23;20092;-89
2022/08/05 04:22:59;;;;;;;1.88;0.80;;;23.20;94.60;;;;;;6165257;23;20383;-89
2022/08/05 04:25:30;;;;;;;2.55;0.90;;;23.10;94.90;;;;;;6172529;23;20033;-89
2022/08/05 04:28:20;;;;;;;2.15;0.70;;;23.50;95.20;;;;;;6182673;23;20052;-89
2022/08/05 04:31:09;;;;;;;1.35;0.68;;;23.10;95.30;;;;;;6182415;23;20005;-89
2022/08/05 04:33:46;;;;;;;2.47;0.82;;;23.10;95.30;;;;;;6182639;23;20011;-89
2022/08/05 04:36:15;;;;;;;1.75;0.68;;;23.10;95.20;;;;;;6184662;23;20428;-89
2022/08/05 04:38:58;;;;;;;3.33;1.00;;;23.10;95.10;;;;;;6186214;23;20012;-89
2022/08/05 04:41:25;;;;;;;1.75;0.93;;;23.10;95.30;;;;;;6184948;23;20134;-89
2022/08/05 04:47:33;;;;;;;1.77;0.90;;;23.00;95.20;;;;;;6150863;23;20009;-88
2022/08/05 04:50:06;;;;;;;1.58;0.80;;;23.20;95.30;;;;;;6188116;23;20020;-88
2022/08/05 04:53:13;;;;;;;2.22;1.00;;;23.10;95.40;;;;;;6186484;23;20027;-89
2022/08/05 04:56:24;;;;;;;2.22;0.95;;;23.10;95.50;;;;;;6185352;23;20008;-89
2022/08/05 04:59:21;;;;;;;3.35;0.80;;;23.10;95.60;;;;;;6187687;23;20036;-88
2022/08/05 05:02:11;;;;;;;2.10;0.70;;;23.00;95.80;;;;;;6181424;23;20009;-89
2022/08/05 05:04:48;;;;;;;5.20;0.85;;;22.90;96.10;;;;;;6186773;23;20009;-88
2022/08/05 05:07:49;;;;;;;5.72;0.90;;;22.90;96.20;;;;;;6214187;23;20030;-87
2022/08/05 05:10:40;;;;;;;1.73;0.77;;;23.10;96.40;;;;;;6184304;23;20608;-88
2022/08/05 05:13:37;;;;;;;;;;;;;;;;;;;;;
2022/08/05 05:16:36;;;;;;;;;;;;;;;;;;;;;
2022/08/05 05:19:19;;;;;;;2.70;1.00;;;23.20;96.40;;;;;;6214719;23;20104;-87
2022/08/05 05:24:26;;;;;;;4.85;0.80;;;23.20;96.50;;;;;;6274986;22;20085;-88
2022/08/05 05:27:09;;;;;;;;;;;;;;;;;;;;;
2022/08/05 05:29:38;;;;;;;2.85;0.77;;;23.50;96.10;;;;;;6275487;22;20474;-88
2022/08/05 05:35:48;;;;;;;2.67;0.90;;;23.70;95.80;;;;;;6273504;22;20008;-88
2022/08/05 05:38:35;;;;;;;3.22;1.20;;;23.80;95.90;;;;;;6246527;22;20480;-88
2022/08/05 05:50:16;;;;;;;1.83;0.90;;;24.20;95.50;;;;;;6182704;23;20067;-88
2022/08/05 05:53:11;;;;;;;2.50;1.50;;;24.30;95.40;;;;;;6009798;23;20582;-88
2022/08/05 05:55:40;;;;;;;3.63;1.33;;;24.40;95.20;;;;;;6033207;23;20681;-87
2022/08/05 05:58:28;;;;;;;2.55;1.40;;;24.40;95.20;;;;;;6011779;23;20000;-88
2022/08/05 06:01:01;;;;;;;3.58;1.35;;;24.50;95.20;;;;;;6086739;23;20025;-88
2022/08/05 06:03:36;;;;;;;2.65;1.05;;;24.60;94.90;;;;;;6126764;23;20004;-90
2022/08/05 06:06:16;;;;;;;;;;;;;;;;;;;;;
2022/08/05 06:12:35;;;;;;;2.85;0.80;;;24.70;94.70;;;;;;6058848;23;20015;-90
2022/08/05 06:15:19;;;;;;;2.50;0.98;;;24.90;94.60;;;;;;6038668;23;20014;-88
2022/08/05 06:27:02;;;;;;;4.00;1.10;;;25.20;93.70;;;;;;6287561;22;20020;-89
2022/08/05 06:29:37;;;;;;;2.88;0.80;;;25.10;93.50;;;;;;6259733;22;20065;-90
2022/08/05 06:32:15;;;;;;;2.40;1.33;;;25.10;93.60;;;;;;6261134;22;20057;-90
2022/08/05 06:35:24;;;;;;;2.90;1.10;;;25.20;93.60;;;;;;6287574;22;20018;-88
2022/08/05 06:37:52;;;;;;;2.20;0.80;;;25.20;93.30;;;;;;6288964;22;20002;-89
2022/08/05 06:40:18;;;;;;;2.88;1.08;;;25.30;93.30;;;;;;6261297;22;20034;-88
2022/08/05 06:42:47;;;;;;;2.50;0.93;;;25.50;93.10;;;;;;6287277;22;19999;-88
2022/08/05 06:48:47;;;;;;;;;;;25.60;92.90;;;;;;6266703;22;20003;-89
2022/08/05 06:51:36;;;;;;;2.92;1.00;;;25.80;92.70;;;;;;6260762;22;19914;-89
2022/08/05 06:54:53;;;;;;;2.35;0.82;;;25.80;92.50;;;;;;6288184;22;20004;-88
2022/08/05 06:57:19;;;;;;;2.03;0.93;;;25.80;92.50;;;;;;6233323;22;20062;-88
2022/08/05 06:59:53;;;;;;;3.15;0.80;;;26.00;92.60;;;;;;6260314;22;20000;-91
2022/08/05 07:03:04;;;;;;;2.25;1.00;;;26.10;92.20;;;;;;6260027;22;20007;-91
2022/08/05 07:09:37;;;;;;;3.00;0.90;;;26.50;91.80;;;;;;6164035;23;20039;-89
2022/08/05 07:12:14;;;;;;;3.65;0.85;;;26.70;91.40;;;;;;6227270;23;20430;-89
2022/08/05 07:18:18;;;;;;;1.52;0.77;;;26.80;90.60;;;;;;6285612;22;20031;-90
2022/08/05 07:21:34;;;;;;;2.40;0.95;;;26.80;90.40;;;;;;6286992;22;20003;-90
2022/08/05 07:24:29;;;;;;;2.10;1.00;;;27.00;90.30;;;;;;6288173;22;20008;-90
2022/08/05 07:26:54;;;;;;;2.22;0.93;;;27.10;90.30;;;;;;6247237;22;20006;-91
2022/08/05 07:29:28;;;;;;;1.30;0.50;;;27.10;89.80;;;;;;6257850;22;20027;-90
2022/08/05 07:31:56;;;;;;;2.35;0.55;;;27.10;89.70;;;;;;6262431;22;20003;-91
2022/08/05 07:34:28;;;;;;;1.52;0.70;;;27.00;88.90;;;;;;6288828;22;19995;-91
2022/08/05 07:36:57;;;;;;;2.22;0.50;;;27.00;88.90;;;;;;6260003;22;20011;-91
2022/08/05 07:39:33;;;;;;;1.73;0.70;;;27.00;88.40;;;;;;6260758;22;20014;-92
2022/08/05 07:42:03;;;;;;;2.45;0.90;;;27.00;88.50;;;;;;6260617;22;20004;-91
2022/08/05 07:44:50;;;;;;;;;;;;;;;;;;;;;
2022/08/05 07:47:17;;;;;;;0.98;0.50;;;27.00;87.90;;;;;;6282289;22;20075;-91
2022/08/05 07:50:10;;;;;;;1.38;0.73;;;27.00;88.00;;;;;;6255856;22;20067;-91
2022/08/05 07:52:45;;;;;;;1.67;0.73;;;27.10;88.20;;;;;;6255022;22;20000;-91
2022/08/05 07:58:22;;;;;;;1.08;0.60;;;27.30;87.50;;;;;;6285299;22;20064;-90
2022/08/05 08:01:25;;;;;;;1.38;0.68;;;27.30;87.40;;;;;;6261010;22;20086;-90
2022/08/05 08:07:05;;;;;;;2.15;0.95;;;27.50;85.80;;;;;;6195151;23;20028;-91
2022/08/05 08:09:41;;;;;;;1.60;0.70;;;27.70;85.80;;;;;;6169564;23;20005;-91
2022/08/05 08:12:13;;;;;;;1.40;0.50;;;27.80;85.50;;;;;;6172016;23;20498;-90
2022/08/05 08:15:12;;;;;;;1.88;0.60;;;27.80;84.00;;;;;;6170731;23;20088;-89
2022/08/05 08:17:48;;;;;;;2.15;0.50;;;27.80;83.60;;;;;;6168660;23;20008;-90
2022/08/05 08:20:21;;;;;;;1.02;0.50;;;27.90;82.40;;;;;;6170243;23;20037;-89
2022/08/05 08:23:26;;;;;;;2.53;0.45;;;28.00;82.00;;;;;;6170004;23;20069;-89
2022/08/05 08:26:01;;;;;;;1.85;0.50;;;28.00;80.90;;;;;;6052304;23;20066;-90
2022/08/05 08:28:35;;;;;;;1.33;0.30;;;28.10;81.50;;;;;;6077743;23;20002;-90
2022/08/05 08:31:33;;;;;;;0.95;0.30;;;28.10;80.80;;;;;;6077474;23;19998;-91
2022/08/05 08:34:02;;;;;;;0.90;0.40;;;28.20;80.60;;;;;;6150101;23;20021;-91
2022/08/05 08:36:53;;;;;;;1.48;0.47;;;28.30;79.70;;;;;;6173256;23;20001;-92
2022/08/05 08:39:26;;;;;;;0.90;0.32;;;28.40;79.90;;;;;;6175399;23;20008;-92
2022/08/05 08:41:55;;;;;;;0.80;0.32;;;28.50;80.00;;;;;;6173221;23;20487;-92
2022/08/05 08:44:28;;;;;;;0.70;0.35;;;28.70;79.40;;;;;;6202052;23;20001;-92
2022/08/05 08:47:01;;;;;;;1.65;0.40;;;28.60;78.80;;;;;;6168671;23;20005;-92
2022/08/05 08:49:41;;;;;;;1.00;0.40;;;28.80;78.40;;;;;;6170301;23;20009;-92
2022/08/05 08:52:25;;;;;;;1.55;0.30;;;29.00;78.20;;;;;;6166990;23;20003;-91
2022/08/05 08:54:55;;;;;;;0.70;0.35;;;29.00;77.90;;;;;;6167904;23;20005;-91
2022/08/05 08:57:32;;;;;;;1.05;0.50;;;29.20;78.60;;;;;;6170522;23;20001;-91
2022/08/05 09:00:07;;;;;;;0.73;0.30;;;29.40;78.20;;;;;;6168718;23;20013;-92
2022/08/05 09:02:38;;;;;;;0.80;0.40;;;29.30;77.50;;;;;;6165725;23;20305;-91
2022/08/05 09:08:27;;;;;;;1.05;0.32;;;29.50;77.10;;;;;;6178449;23;20005;-91
2022/08/05 09:11:11;;;;;;;0.70;0.30;;;29.50;76.70;;;;;;6195419;23;20035;-91
2022/08/05 09:13:43;;;;;;;1.17;0.30;;;29.40;76.20;;;;;;6169945;23;20028;-91
2022/08/05 09:16:22;;;;;;;0.70;0.40;;;29.90;76.40;;;;;;6196509;23;20001;-91
2022/08/05 09:19:22;;;;;;;1.15;0.40;;;29.60;75.90;;;;;;6172022;23;20084;-91
2022/08/05 09:21:53;;;;;;;1.15;0.40;;;29.50;76.20;;;;;;6168996;23;20464;-91
2022/08/05 09:24:21;;;;;;;;;;;29.50;75.90;;;;;;6195333;23;20009;-92
2022/08/05 09:39:12;;;;;;;1.00;0.40;;;30.00;73.50;;;;;;6197910;23;20020;-89
2022/08/05 09:42:28;;;;;;;1.67;0.45;;;30.40;72.10;;;;;;6143481;23;20009;-90
2022/08/05 09:45:58;;;;;;;0.85;0.50;;;30.50;72.90;;;;;;5996047;23;20022;-90
2022/08/05 09:49:05;;;;;;;2.42;0.40;;;30.40;73.40;;;;;;5980992;23;20015;-90
2022/08/05 09:51:51;;;;;;;1.08;0.40;;;30.80;72.60;;;;;;5995407;23;20010;-91
2022/08/05 09:54:42;;;;;;;0.70;0.30;;;31.20;71.90;;;;;;6137914;23;20037;-90
2022/08/05 09:57:38;;;;;;;0.82;0.40;;;31.20;69.70;;;;;;6165563;23;20065;-90
2022/08/05 10:00:37;;;;;;;1.17;0.50;;;31.20;69.70;;;;;;6167601;23;20005;-90
2022/08/05 10:03:45;;;;;;;0.80;0.40;;;31.10;69.60;;;;;;6019368;23;20024;-90
2022/08/05 10:06:42;;;;;;;1.25;0.50;;;31.70;70.10;;;;;;6136212;23;20013;-91
2022/08/05 10:12:44;;;;;;;1.15;0.45;;;31.80;69.70;;;;;;6124709;23;20071;-92
2022/08/05 10:15:20;;;;;;;1.33;0.40;;;31.90;68.70;;;;;;6136472;23;20002;-93
2022/08/05 10:18:08;;;;;;;1.73;0.50;;;31.60;69.10;;;;;;6133377;23;20065;-93
2022/08/05 10:20:54;;;;;;;1.30;0.40;;;31.50;69.40;;;;;;6135213;23;20017;-92
2022/08/05 10:23:44;;;;;;;0.80;0.30;;;31.40;69.10;;;;;;6134282;23;20009;-90
2022/08/05 10:26:19;;;;;;;0.55;0.35;;;31.50;70.00;;;;;;6133603;23;20009;-90
2022/08/05 10:28:49;;;;;;;1.52;0.50;;;31.80;70.20;;;;;;6134101;23;20061;-91
2022/08/05 10:31:16;;;;;;;1.57;0.60;;;31.80;68.60;;;;;;6134563;23;20013;-91
2022/08/05 10:34:06;;;;;;;0.77;0.32;;;31.40;68.30;;;;;;6136796;23;20025;-91
2022/08/05 10:37:20;;;;;;;0.98;0.40;;;31.10;69.60;;;;;;6110406;23;20006;-91
2022/08/05 10:39:51;;;;;;;0.63;0.30;;;31.40;69.70;;;;;;6082618;23;20040;-90
2022/08/05 10:42:22;;;;;;;0.68;0.30;;;31.30;68.90;;;;;;6134836;23;20433;-91
2022/08/05 10:45:05;;;;;;;1.23;0.47;;;31.60;69.20;;;;;;6136786;23;20057;-91
2022/08/05 10:48:19;;;;;;;1.10;0.47;;;31.80;69.60;;;;;;6136435;23;20002;-91
2022/08/05 10:51:24;;;;;;;2.13;0.60;;;32.10;68.90;;;;;;6102196;23;20010;-91
2022/08/05 11:12:07;;;;;;;0.70;0.30;;;32.90;67.70;;;;;;6168844;23;20070;-91
2022/08/05 11:32:02;;;;;;;1.10;0.50;;;34.70;64.20;;;;;;6054394;23;20018;-92
2022/08/05 11:35:24;;;;;;;1.40;0.50;;;35.70;67.00;;;;;;5977103;23;20489;-91
2022/08/05 11:51:07;;;;;;;0.77;0.40;;;35.00;64.20;;;;;;6162481;23;20017;-93
2022/08/05 11:54:00;;;;;;;1.08;0.38;;;35.00;66.40;;;;;;6188131;23;20055;-92
2022/08/05 12:29:57;;;;;;;;;;;;;;;;;;;;;
2022/08/05 12:38:38;;;;;;;1.33;0.40;;;35.30;66.40;;;;;;6211434;23;19946;-88
2022/08/05 12:41:38;;;;;;;0.65;0.30;;;34.40;65.30;;;;;;6180056;23;20016;-90
2022/08/05 12:44:25;;;;;;;1.23;0.40;;;34.90;64.30;;;;;;6182208;23;20008;-89
2022/08/05 12:47:43;;;;;;;0.90;0.30;;;34.80;65.30;;;;;;6212411;23;20063;-90
2022/08/05 12:50:22;;;;;;;1.55;0.40;;;35.20;63.60;;;;;;6190916;23;20455;-90
2022/08/05 12:53:27;;;;;;;1.10;0.40;;;35.90;72.50;;;;;;6188058;23;20024;-89
2022/08/05 12:56:29;;;;;;;0.52;0.30;;;36.20;75.40;;;;;;6185408;23;20000;-91
2022/08/05 12:59:14;;;;;;;1.10;0.47;;;34.50;60.20;;;;;;6139179;23;20040;-90
2022/08/05 13:02:08;;;;;;;0.95;0.50;;;36.50;60.50;;;;;;6186117;23;20008;-92
2022/08/05 13:08:50;;;;;;;1.38;0.30;;;37.10;58.80;;;;;;6213351;23;20035;-89
2022/08/05 13:12:35;;;;;;;1.27;0.57;;;36.90;59.40;;;;;;6186898;23;20005;-88
2022/08/05 13:15:35;;;;;;;1.02;0.50;;;36.70;60.50;;;;;;6120817;23;20006;-89
2022/08/05 13:18:36;;;;;;;0.88;0.50;;;36.70;59.80;;;;;;6136774;23;20008;-88
2022/08/05 13:21:07;;;;;;;1.20;0.40;;;35.30;60.70;;;;;;6158065;23;20332;-87
2022/08/05 13:23:45;;;;;;;1.05;0.40;;;34.90;60.50;;;;;;6213011;23;20412;-88
2022/08/05 13:26:18;;;;;;;0.77;0.40;;;35.00;61.20;;;;;;6186026;23;20005;-88
2022/08/05 13:29:37;;;;;;;;;;;;;;;;;;;;;
2022/08/05 13:32:27;;;;;;;2.50;0.75;;;35.40;60.90;;;;;;6202082;23;20079;-88
2022/08/05 13:35:29;;;;;;;0.70;0.30;;;35.40;60.40;;;;;;6212421;23;20031;-89
2022/08/05 13:38:12;;;;;;;1.58;0.50;;;36.10;60.00;;;;;;6185446;23;20062;-89
2022/08/05 13:41:15;;;;;;;0.70;0.40;;;35.80;59.60;;;;;;6184910;23;20013;-89
2022/08/05 13:44:07;;;;;;;;;;;;;;;;;;;;;
2022/08/05 13:47:38;;;;;;;1.42;0.50;;;34.90;61.80;;;;;;6211418;23;20107;-89
2022/08/05 13:57:26;;;;;;;1.10;0.60;;;34.00;62.90;;;;;;6165099;23;19997;-89
2022/08/05 13:59:54;;;;;;;0.88;0.38;;;34.00;63.00;;;;;;6186870;23;20039;-89
2022/08/05 14:02:56;;;;;;;1.02;0.68;;;33.70;62.50;;;;;;6184286;23;20131;-90
2022/08/05 14:09:39;;;;;;;1.05;0.57;;;33.40;63.60;;;;;;6212782;23;20045;-89
2022/08/05 14:13:10;;;;;;;1.30;0.60;;;33.10;64.00;;;;;;6172855;23;20078;-88
2022/08/05 14:16:04;;;;;;;0.77;0.30;;;33.10;63.40;;;;;;6209478;23;20063;-89
2022/08/05 14:19:09;;;;;;;1.13;0.60;;;32.70;64.00;;;;;;6186946;23;20335;-88
2022/08/05 14:21:38;;;;;;;2.83;0.60;;;32.50;64.50;;;;;;6187197;23;20537;-89
2022/08/05 14:24:47;;;;;;;1.73;0.60;;;32.10;64.80;;;;;;6181940;23;20004;-89
2022/08/05 14:27:48;;;;;;;;;;;;;;;;;;;;;
2022/08/05 14:31:19;;;;;;;2.50;0.70;;;31.90;65.50;;;;;;6213066;23;20092;-89
2022/08/05 14:34:07;;;;;;;1.33;0.43;;;31.90;65.50;;;;;;6183442;23;20019;-89
2022/08/05 14:37:08;;;;;;;2.22;0.60;;;31.70;65.70;;;;;;6127191;23;20057;-89
2022/08/05 14:39:45;;;;;;;1.30;0.63;;;31.60;66.00;;;;;;6154513;23;20479;-89
2022/08/05 14:42:17;;;;;;;1.15;0.70;;;31.50;66.40;;;;;;6153977;23;20005;-89
2022/08/05 14:45:06;;;;;;;0.90;0.43;;;32.30;67.30;;;;;;6153063;23;20012;-90
2022/08/05 14:47:42;;;;;;;0.95;0.50;;;31.20;66.50;;;;;;6128712;23;20081;-88
2022/08/05 14:54:14;;;;;;;1.10;0.50;;;30.90;67.30;;;;;;6119277;23;20479;-88
2022/08/05 14:57:10;;;;;;;;;;;;;;;;;;;;;
2022/08/05 14:59:44;;;;;;;0.70;0.40;;;30.40;69.10;;;;;;6154899;23;20076;-89
2022/08/05 15:02:58;;;;;;;0.80;0.50;;;30.30;69.70;;;;;;6128069;23;20455;-89
2022/08/05 15:05:38;;;;;;;2.05;0.93;;;29.80;69.30;;;;;;6110044;23;20503;-88
2022/08/05 15:08:33;;;;;;;;;;;;;;;;;;;;;
2022/08/05 15:11:09;;;;;;;0.77;0.40;;;29.90;71.70;;;;;;6153398;23;20076;-88
2022/08/05 15:14:17;;;;;;;1.70;0.60;;;29.90;72.50;;;;;;6127246;23;20046;-88
2022/08/05 15:16:42;;;;;;;1.67;0.50;;;29.80;73.80;;;;;;6127268;23;20002;-89
2022/08/05 15:22:32;;;;;;;1.00;0.50;;;30.80;76.80;;;;;;6153100;23;20017;-89
2022/08/05 15:25:00;;;;;;;1.52;0.60;;;30.60;79.40;;;;;;6128471;23;20010;-89
2022/08/05 15:27:26;;;;;;;2.30;0.75;;;30.30;82.40;;;;;;6129023;23;20002;-89
2022/08/05 15:29:59;;;;;;;2.05;0.80;;;30.20;83.70;;;;;;6129046;23;20026;-89
2022/08/05 15:32:32;;;;;;;2.40;0.90;;;29.90;85.30;;;;;;6129201;23;20012;-89
2022/08/05 15:35:17;;;;;;;1.88;0.80;;;30.00;86.00;;;;;;6154314;23;20020;-89
2022/08/05 15:37:51;;;;;;;1.83;0.77;;;29.90;86.00;;;;;;6128120;23;20050;-90
2022/08/05 15:40:17;;;;;;;3.22;0.73;;;30.20;86.80;;;;;;6128658;23;20017;-89
2022/08/05 15:43:13;;;;;;;2.58;0.80;;;29.70;85.30;;;;;;6128099;23;20084;-89
2022/08/05 15:45:54;;;;;;;2.13;1.08;;;29.80;86.10;;;;;;6011256;23;20013;-89
2022/08/05 15:48:23;;;;;;;2.10;0.80;;;29.70;85.20;;;;;;6036992;23;20443;-88
2022/08/05 15:50:54;;;;;;;1.20;0.60;;;29.60;85.70;;;;;;6166499;23;20008;-89
2022/08/05 15:53:34;;;;;;;1.45;0.80;;;29.60;85.20;;;;;;6178372;23;20013;-88
2022/08/05 15:55:59;;;;;;;1.63;0.80;;;29.40;84.20;;;;;;6142447;23;20006;-88
2022/08/05 15:58:34;;;;;;;3.00;1.42;;;29.40;85.60;;;;;;6155777;23;20060;-88
2022/08/05 16:01:01;;;;;;;3.58;1.05;;;29.30;85.50;;;;;;6153784;23;20010;-88
2022/08/05 16:03:33;;;;;;;1.55;0.90;;;28.90;85.50;;;;;;6127726;23;20084;-89
2022/08/05 16:06:14;;;;;;;3.08;0.88;;;28.70;85.50;;;;;;6127265;23;20031;-87
2022/08/05 16:08:40;;;;;;;2.35;1.00;;;28.60;85.80;;;;;;6129329;23;20009;-89
2022/08/05 16:11:13;;;;;;;1.75;0.60;;;28.40;87.10;;;;;;6154653;23;20084;-88
2022/08/05 16:16:34;;;;;;;1.75;0.70;;;28.30;87.90;;;;;;6147268;23;20008;-89
2022/08/05 16:19:17;;;;;;;1.77;0.90;;;28.20;88.10;;;;;;6129697;23;20577;-89
2022/08/05 16:21:43;;;;;;;2.00;0.90;;;28.30;87.40;;;;;;6153122;23;19994;-89
2022/08/05 16:24:19;;;;;;;1.33;0.70;;;28.20;87.80;;;;;;6128777;23;20005;-89
2022/08/05 16:27:11;;;;;;;1.45;0.80;;;28.20;86.80;;;;;;6152013;23;20044;-89
2022/08/05 16:29:36;;;;;;;1.23;0.70;;;28.20;86.60;;;;;;6128483;23;20404;-89
2022/08/05 16:32:08;;;;;;;3.33;0.80;;;28.10;86.50;;;;;;6128617;23;20005;-87
2022/08/05 16:34:33;;;;;;;2.35;0.80;;;27.90;86.60;;;;;;6128301;23;20006;-89
2022/08/05 16:37:11;;;;;;;1.92;0.70;;;27.80;86.80;;;;;;6128387;23;20068;-89
2022/08/05 16:39:48;;;;;;;2.10;0.93;;;28.60;87.10;;;;;;6128542;23;20017;-89
2022/08/05 16:42:13;;;;;;;1.48;0.80;;;27.50;86.90;;;;;;6129280;23;20009;-89
2022/08/05 16:44:46;;;;;;;4.65;1.25;;;27.40;86.60;;;;;;6130074;23;20079;-89
2022/08/05 16:47:12;;;;;;;1.80;0.82;;;26.60;85.80;;;;;;6128914;23;20006;-88
2022/08/05 16:49:41;;;;;;;2.47;0.90;;;28.00;87.40;;;;;;6127519;23;20448;-89
2022/08/05 16:52:10;;;;;;;2.25;0.95;;;27.10;86.50;;;;;;6128876;23;20009;-89
2022/08/05 16:54:36;;;;;;;1.80;0.90;;;27.10;86.50;;;;;;6154164;23;20001;-89
2022/08/05 16:57:01;;;;;;;1.90;0.70;;;27.10;86.40;;;;;;6154228;23;20012;-89
2022/08/05 16:59:27;;;;;;;2.10;0.80;;;26.90;86.50;;;;;;6128569;23;20089;-89
2022/08/05 17:01:59;;;;;;;1.10;0.60;;;26.90;86.80;;;;;;6129104;23;20088;-89
2022/08/05 17:04:32;;;;;;;2.88;0.80;;;27.10;86.90;;;;;;6129502;23;20012;-88
2022/08/05 17:07:20;;;;;;;1.27;0.60;;;26.90;86.90;;;;;;6128195;23;20009;-88
2022/08/05 17:10:15;;;;;;;1.58;0.70;;;26.90;87.70;;;;;;6154525;23;20006;-89
2022/08/05 17:16:39;;;;;;;1.65;0.88;;;27.30;87.10;;;;;;6058523;23;20007;-87
2022/08/05 17:19:08;;;;;;;1.20;0.70;;;26.70;87.60;;;;;;6037604;23;20529;-89
2022/08/05 17:22:08;;;;;;;;;;;;;;;;;;;;;
2022/08/05 17:28:35;;;;;;;1.70;0.88;;;26.60;86.80;;;;;;6061931;23;20227;-88
2022/08/05 17:31:46;;;;;;;1.90;0.70;;;26.50;87.90;;;;;;6031395;23;20126;-88
2022/08/05 17:38:09;;;;;;;1.38;0.50;;;26.30;88.70;;;;;;6037360;23;19985;-89
2022/08/05 17:40:35;;;;;;;1.52;0.60;;;26.10;88.50;;;;;;6112926;23;20117;-88
2022/08/05 17:43:03;;;;;;;3.22;0.90;;;26.10;89.10;;;;;;6154168;23;20020;-88
2022/08/05 17:45:30;;;;;;;3.78;1.02;;;26.10;89.00;;;;;;6127677;23;20509;-89
2022/08/05 17:47:59;;;;;;;2.83;0.82;;;26.00;89.30;;;;;;6127431;23;20444;-88
2022/08/05 17:50:28;;;;;;;1.65;0.82;;;26.00;89.00;;;;;;6128582;23;20318;-88
2022/08/05 17:53:04;;;;;;;1.30;0.60;;;25.80;89.20;;;;;;6128626;23;20056;-88
2022/08/05 17:55:48;;;;;;;1.17;0.60;;;25.60;88.80;;;;;;6150734;23;20002;-88
2022/08/05 17:58:28;;;;;;;1.65;0.90;;;25.80;89.40;;;;;;6127958;23;20005;-88
2022/08/05 18:01:51;;;;;;;1.23;0.65;;;25.60;89.30;;;;;;6128886;23;20029;-88
2022/08/05 18:04:22;;;;;;;1.60;1.00;;;25.60;89.40;;;;;;6067558;23;20006;-88
2022/08/05 18:06:59;;;;;;;1.25;0.60;;;25.70;89.70;;;;;;6128075;23;20006;-88
2022/08/05 18:09:41;;;;;;;2.05;0.98;;;25.10;89.80;;;;;;6128640;23;20009;-88
2022/08/05 18:12:28;;;;;;;1.98;0.57;;;25.50;90.20;;;;;;6128664;23;20009;-88
2022/08/05 18:15:00;;;;;;;2.70;1.00;;;25.40;90.30;;;;;;6128678;23;20006;-89
2022/08/05 18:17:38;;;;;;;;;;;;;;;;;;;;;
2022/08/05 18:20:28;;;;;;;2.58;0.70;;;25.30;90.70;;;;;;6156102;23;20085;-88
2022/08/05 18:22:57;;;;;;;2.35;1.05;;;25.40;91.00;;;;;;6128370;23;20002;-89
2022/08/05 18:25:29;;;;;;;2.75;1.35;;;25.30;92.00;;;;;;6155405;23;20499;-89
2022/08/05 18:27:55;;;;;;;3.00;1.13;;;25.20;92.30;;;;;;6127611;23;19998;-88